Bratsk Airport
UIBB : now visible

Airfield :











YOU CAN JOIN US ON...

 
LOGIN :

Register | Disclaimer

   EN    FR    IT 

 









Legend :    VFR   Marginal VFR   IFR   Intensive IFR   Very Intensive IFR
Visi :
Ceiling :
>= 8 km
>= 3000ft
5 to 8 km
1000 to 3000 ft
1500m to 5 km
500 to 1000 ft
800 to 1500m
200 to 500 ft
< 800m
< 200 ft
Symbols :   Thunderstorms  Fog  Heavy snow  Heavy precipitations  Wind > 20 kt






- Airport Elevation : 1610 ft
- IATA code : BTK


UIBB - Bratsk

CURRENT METAR :
  • 161930Z AUTO 00000MPS 7000 // NCD M12/M13 Q1034 RMK QFE732/0976

EXPIRED METARs :
  • 161900Z AUTO 25001MPS 4900 0600SE // NCD M14/M15 Q1035 RMK QFE732/0976
  • 161830Z AUTO 26001MPS 5000 // NCD M12/M12 Q1035 RMK QFE732/0976
  • 161800Z AUTO 00000MPS 4400 // NCD M13/M14 Q1035 RMK QFE732/0976
  • 161730Z AUTO 24001MPS 7000 // NCD M12/M13 Q1035 RMK QFE732/0976
  • 161700Z AUTO 26001MPS 6000 // NCD M13/M13 Q1035 RMK QFE732/0977

TAF TAF UIBB
Valid from the 16 at 18:00 until the 17 at 18:00 UTC


161700Z 1618/1718 VRB01MPS 1000 BR FU FEW003
TEMPO 1618/1702 0300 FZFG FU VV001
BECMG 1702/1703 4000 FU NSC



MET'MAP, your aeronautical weather chart ! - Copyright ORBIFLY December 2007 - Disclaimer

ORBIFLY MET'MAP TEAM :

Programming & Development : Alexandra Zaïnal
Concept & original design : Baudouin d'Aumeries
Assistance for programming : Marc-Olivier Méhu
Technical & hardware support : Manuel Goepfert

Contact : metmap@orbifly.com




SOURCES & CREDITS :

   NOAA       Earth
Advisory